createdAt,value
2023-04-18T00:01:53.355Z,8.20
2023-04-18T00:04:20.530Z,8.20
2023-04-18T00:06:49.686Z,8.10
2023-04-18T00:09:16.454Z,8.10
2023-04-18T00:11:43.578Z,8.00
2023-04-18T00:14:10.443Z,8.00
2023-04-18T00:16:38.061Z,8.00
2023-04-18T00:19:06.104Z,8.00
2023-04-18T00:21:33.001Z,7.90
2023-04-18T00:23:59.693Z,7.90
2023-04-18T00:26:27.583Z,7.90
2023-04-18T00:28:54.209Z,7.90
2023-04-18T00:31:21.070Z,7.90
2023-04-18T00:33:47.833Z,7.80
2023-04-18T00:36:14.480Z,7.70
2023-04-18T00:38:41.212Z,7.70
2023-04-18T00:41:07.890Z,7.70
2023-04-18T00:43:35.137Z,7.60
2023-04-18T00:46:01.891Z,7.60
2023-04-18T00:48:29.337Z,7.60
2023-04-18T00:50:56.084Z,7.60
2023-04-18T00:53:22.864Z,7.60
2023-04-18T00:55:49.876Z,7.60
2023-04-18T00:58:16.800Z,7.50
2023-04-18T01:00:43.667Z,7.50
2023-04-18T01:03:10.840Z,7.50
2023-04-18T01:05:38.199Z,7.50
2023-04-18T01:08:04.915Z,7.40
2023-04-18T01:10:31.859Z,7.40
2023-04-18T01:13:12.328Z,7.50
2023-04-18T01:15:43.571Z,7.50
2023-04-18T01:18:10.950Z,7.50
2023-04-18T01:20:41.511Z,7.50
2023-04-18T01:23:10.445Z,7.50
2023-04-18T01:25:37.415Z,7.40
2023-04-18T01:28:04.659Z,7.40
2023-04-18T01:30:31.456Z,7.40
2023-04-18T01:32:58.309Z,7.40
2023-04-18T01:35:25.193Z,7.30
2023-04-18T01:37:51.928Z,7.30
2023-04-18T01:40:18.586Z,7.30
2023-04-18T01:42:45.412Z,7.20
2023-04-18T01:45:12.996Z,7.30
2023-04-18T01:47:39.818Z,7.20
2023-04-18T01:50:07.079Z,7.20
2023-04-18T01:52:33.893Z,7.20
2023-04-18T01:55:02.107Z,7.10
2023-04-18T01:57:28.919Z,7.10
2023-04-18T01:59:55.707Z,7.10
2023-04-18T02:02:22.612Z,7.10
2023-04-18T02:04:49.411Z,7.10
2023-04-18T02:07:16.080Z,7.20
2023-04-18T02:09:42.764Z,7.20
2023-04-18T02:12:10.100Z,7.20
2023-04-18T02:14:36.761Z,7.20
2023-04-18T02:17:03.422Z,7.20
2023-04-18T02:19:30.231Z,7.20
2023-04-18T02:21:56.844Z,7.20
2023-04-18T02:24:23.507Z,7.20
2023-04-18T02:26:50.462Z,7.20
2023-04-18T02:29:17.130Z,7.10
2023-04-18T02:31:43.921Z,7.10
2023-04-18T02:34:10.769Z,7.10
2023-04-18T02:36:37.465Z,7.00
2023-04-18T02:39:04.121Z,7.00
2023-04-18T02:41:31.186Z,7.00
2023-04-18T02:43:58.083Z,7.00
2023-04-18T02:46:24.934Z,6.90
2023-04-18T02:48:51.693Z,6.90
2023-04-18T02:51:19.833Z,7.00
2023-04-18T02:53:46.663Z,7.00
2023-04-18T02:56:16.979Z,6.90
2023-04-18T02:58:43.637Z,6.90
2023-04-18T03:01:10.494Z,6.90
2023-04-18T03:03:37.208Z,7.00
2023-04-18T03:06:04.071Z,7.00
2023-04-18T03:08:30.696Z,7.00
2023-04-18T03:10:57.340Z,7.00
2023-04-18T03:13:24.368Z,7.00
2023-04-18T03:15:51.304Z,7.10
2023-04-18T03:18:18.011Z,7.10
2023-04-18T03:20:44.673Z,7.10
2023-04-18T03:23:11.332Z,7.10
2023-04-18T03:25:38.164Z,7.20
2023-04-18T03:28:05.166Z,7.20
2023-04-18T03:30:32.465Z,7.20
2023-04-18T03:32:59.477Z,7.10
2023-04-18T03:35:26.165Z,7.20
2023-04-18T03:37:52.782Z,7.20
2023-04-18T03:40:19.470Z,7.20
2023-04-18T03:42:46.071Z,7.20
2023-04-18T03:45:12.767Z,7.20
2023-04-18T03:47:39.502Z,7.20
2023-04-18T03:50:06.608Z,7.20
2023-04-18T03:52:33.287Z,7.30
2023-04-18T03:55:00.000Z,7.40
2023-04-18T03:57:26.584Z,7.30
2023-04-18T03:59:53.311Z,7.20
2023-04-18T04:02:20.045Z,7.20
2023-04-18T04:04:46.832Z,7.20
2023-04-18T04:07:13.757Z,7.20
2023-04-18T04:09:40.664Z,7.20
2023-04-18T04:12:07.390Z,7.20
2023-04-18T04:14:33.992Z,7.20
2023-04-18T04:17:00.719Z,7.20
2023-04-18T04:19:27.422Z,7.20
2023-04-18T04:21:54.173Z,7.20
2023-04-18T04:24:22.692Z,7.20
2023-04-18T04:26:50.664Z,7.20
2023-04-18T04:29:18.950Z,7.20
2023-04-18T04:31:45.887Z,7.20
2023-04-18T04:34:12.811Z,7.20
2023-04-18T04:36:41.114Z,7.50
2023-04-18T04:39:08.602Z,7.20
2023-04-18T04:41:37.521Z,7.20
2023-04-18T04:44:04.278Z,7.30
2023-04-18T04:46:31.756Z,7.20
2023-04-18T04:48:58.459Z,7.20
2023-04-18T04:51:25.801Z,7.20
2023-04-18T04:53:52.518Z,7.20
2023-04-18T04:56:19.285Z,7.20
2023-04-18T04:58:47.122Z,7.20
2023-04-18T05:01:13.863Z,7.20
2023-04-18T05:03:41.059Z,7.20
2023-04-18T05:06:07.936Z,7.20
2023-04-18T05:08:34.634Z,7.20
2023-04-18T05:11:02.051Z,7.20
2023-04-18T05:13:28.682Z,7.20
2023-04-18T05:15:55.574Z,7.20
2023-04-18T05:18:22.258Z,7.20
2023-04-18T05:20:49.311Z,7.10
2023-04-18T05:23:16.190Z,7.10
2023-04-18T05:25:42.793Z,7.10
2023-04-18T05:28:09.432Z,7.10
2023-04-18T05:30:36.156Z,7.10
2023-04-18T05:33:03.222Z,7.10
2023-04-18T05:35:30.270Z,6.90
2023-04-18T05:37:58.266Z,7.10
2023-04-18T05:40:25.525Z,7.10
2023-04-18T05:42:52.112Z,7.10
2023-04-18T05:45:18.748Z,7.10
2023-04-18T05:47:45.526Z,7.10
2023-04-18T05:50:12.261Z,7.10
2023-04-18T05:52:39.111Z,7.10
2023-04-18T05:55:06.781Z,7.10
2023-04-18T05:57:33.490Z,7.20
2023-04-18T06:00:00.275Z,7.20
2023-04-18T06:02:27.037Z,7.20
2023-04-18T06:04:54.812Z,7.20
2023-04-18T06:07:23.340Z,7.20
2023-04-18T06:09:50.001Z,7.30
2023-04-18T06:12:16.703Z,7.40
2023-04-18T06:14:43.307Z,7.40
2023-04-18T06:17:12.476Z,7.40
2023-04-18T06:19:39.624Z,7.50
2023-04-18T06:22:06.343Z,7.70
2023-04-18T06:24:32.978Z,7.70
2023-04-18T06:26:59.648Z,7.80
2023-04-18T06:29:30.187Z,7.80
2023-04-18T06:31:57.753Z,8.00
2023-04-18T06:34:24.637Z,8.80
2023-04-18T06:36:51.820Z,9.60
2023-04-18T06:39:18.487Z,10.30
2023-04-18T06:41:45.250Z,10.80
2023-04-18T06:44:11.855Z,11.30
2023-04-18T06:46:38.594Z,11.80
2023-04-18T06:49:05.489Z,12.00
2023-04-18T06:51:32.364Z,12.00
2023-04-18T06:53:59.024Z,12.10
2023-04-18T06:56:26.240Z,11.70
2023-04-18T06:58:52.971Z,11.60
2023-04-18T07:01:19.885Z,11.70
2023-04-18T07:03:46.613Z,11.70
2023-04-18T07:06:13.347Z,11.30
2023-04-18T07:08:39.957Z,11.00
2023-04-18T07:11:06.873Z,10.90
2023-04-18T07:13:33.580Z,10.80
2023-04-18T07:16:01.307Z,10.70
2023-04-18T07:18:37.584Z,10.50
2023-04-18T07:21:07.502Z,10.60
2023-04-18T07:23:34.871Z,10.70
2023-04-18T07:26:02.849Z,10.70
2023-04-18T07:28:30.870Z,10.60
2023-04-18T07:30:58.154Z,10.90
2023-04-18T07:33:25.533Z,11.40
2023-04-18T07:35:53.043Z,11.70
2023-04-18T07:38:20.038Z,11.60
2023-04-18T07:40:46.719Z,11.70
2023-04-18T07:43:13.388Z,11.60
2023-04-18T07:45:42.970Z,11.80
2023-04-18T07:48:09.668Z,12.10
2023-04-18T07:50:36.337Z,12.60
2023-04-18T07:53:03.342Z,12.30
2023-04-18T07:55:30.765Z,12.10
2023-04-18T07:57:57.498Z,11.40
2023-04-18T08:00:24.715Z,11.20
2023-04-18T08:02:51.555Z,11.10
2023-04-18T08:05:21.488Z,11.10
2023-04-18T08:07:48.182Z,11.10
2023-04-18T08:10:14.909Z,11.00
2023-04-18T08:12:42.214Z,10.80
2023-04-18T08:15:09.445Z,10.70
2023-04-18T08:17:37.508Z,10.70
2023-04-18T08:20:07.140Z,10.60
2023-04-18T08:22:34.154Z,10.70
2023-04-18T10:42:53.874Z,17.40
2023-04-18T10:45:23.734Z,16.40
2023-04-18T10:47:50.884Z,16.20
2023-04-18T10:50:17.747Z,16.00
2023-04-18T10:52:44.806Z,16.00
2023-04-18T10:55:16.475Z,16.20
2023-04-18T10:57:48.147Z,16.50
2023-04-18T11:00:17.985Z,16.30
2023-04-18T11:02:53.907Z,16.40
2023-04-18T11:05:23.922Z,16.90
2023-04-18T11:07:51.200Z,16.50
2023-04-18T11:10:26.780Z,16.30
2023-04-18T11:12:54.201Z,16.00
2023-04-18T11:15:23.709Z,15.80
2023-04-18T11:18:00.862Z,15.70
2023-04-18T11:20:29.084Z,15.80
2023-04-18T11:22:58.262Z,15.80
2023-04-18T11:25:29.080Z,16.10
2023-04-18T11:27:59.243Z,16.00
2023-04-18T11:30:26.092Z,16.40
2023-04-18T11:32:54.102Z,16.70
2023-04-18T11:35:20.823Z,17.20
2023-04-18T11:37:49.805Z,17.60
2023-04-18T11:40:16.558Z,17.10
2023-04-18T11:42:43.293Z,16.80
2023-04-18T11:45:14.396Z,16.60
2023-04-18T11:47:42.917Z,16.30
2023-04-18T11:50:11.682Z,16.20
2023-04-18T11:52:41.047Z,16.40
2023-04-18T11:55:17.597Z,17.00
2023-04-18T11:58:06.026Z,17.20
2023-04-18T12:00:38.560Z,17.20
2023-04-18T12:03:08.185Z,17.40
2023-04-18T12:05:37.692Z,17.40
2023-04-18T12:08:13.269Z,17.50
2023-04-18T12:10:46.624Z,17.60
2023-04-18T12:13:13.299Z,17.30
2023-04-18T12:15:42.364Z,17.20
2023-04-18T12:18:12.097Z,17.20
2023-04-18T12:20:46.033Z,17.30
2023-04-18T12:23:38.944Z,17.00
2023-04-18T12:26:07.601Z,16.70
2023-04-18T12:28:35.372Z,16.80
2023-04-18T12:31:02.734Z,16.80
2023-04-18T12:33:30.033Z,16.80
2023-04-18T12:35:56.721Z,16.80
2023-04-18T12:38:23.954Z,16.90
2023-04-18T12:40:51.689Z,17.00
2023-04-18T12:43:19.299Z,17.10
2023-04-18T12:45:46.891Z,17.20
2023-04-18T12:48:13.930Z,17.30
2023-04-18T12:50:40.723Z,17.10
2023-04-18T12:53:07.374Z,17.10
2023-04-18T12:55:34.103Z,17.20
2023-04-18T12:58:00.842Z,17.20
2023-04-18T13:00:29.632Z,17.20
2023-04-18T13:02:56.930Z,17.40
2023-04-18T13:05:31.629Z,17.50
2023-04-18T13:08:15.268Z,17.50
2023-04-18T13:10:42.636Z,17.60
2023-04-18T13:13:09.491Z,17.30
2023-04-18T13:15:36.235Z,17.40
2023-04-18T13:18:06.052Z,17.40
2023-04-18T13:20:33.952Z,17.30
2023-04-18T13:23:02.081Z,17.30
2023-04-18T13:25:28.845Z,17.10
2023-04-18T13:27:56.271Z,17.20
2023-04-18T13:30:22.916Z,17.10
2023-04-18T13:32:49.603Z,17.20
2023-04-18T13:35:16.324Z,17.10
2023-04-18T13:37:43.156Z,17.30
2023-04-18T13:40:10.478Z,17.30
2023-04-18T13:42:38.685Z,17.20
2023-04-18T13:45:05.827Z,17.10
2023-04-18T13:47:32.606Z,17.30
2023-04-18T13:49:59.371Z,17.40
2023-04-18T13:52:26.253Z,17.30
2023-04-18T13:54:53.138Z,17.30
2023-04-18T13:57:19.930Z,17.20
2023-04-18T13:59:46.886Z,17.20
2023-04-18T14:02:13.928Z,17.10
2023-04-18T14:04:40.869Z,17.10
2023-04-18T14:07:09.374Z,17.10
2023-04-18T14:09:36.219Z,17.20
2023-04-18T14:12:02.930Z,17.10
2023-04-18T14:14:29.689Z,17.30
2023-04-18T14:16:56.477Z,17.20
2023-04-18T14:19:23.185Z,17.20
2023-04-18T14:21:49.995Z,17.20
2023-04-18T14:24:16.708Z,17.00
2023-04-18T14:26:43.923Z,16.90
2023-04-18T14:29:11.019Z,16.90
2023-04-18T14:31:37.832Z,16.90
2023-04-18T14:34:04.666Z,16.80
2023-04-18T14:36:31.892Z,16.60
2023-04-18T14:38:59.329Z,16.60
2023-04-18T14:41:26.177Z,16.40
2023-04-18T14:43:53.088Z,16.50
2023-04-18T14:46:21.194Z,16.40
2023-04-18T14:48:47.940Z,16.30
2023-04-18T14:51:16.334Z,16.20
2023-04-18T14:53:43.584Z,16.20
2023-04-18T14:56:10.568Z,16.20
2023-04-18T14:58:37.321Z,16.20
2023-04-18T15:01:04.478Z,16.10
2023-04-18T15:03:31.479Z,16.00
2023-04-18T15:05:58.271Z,15.80
2023-04-18T15:08:25.364Z,15.70
2023-04-18T15:10:52.028Z,15.60
2023-04-18T15:13:19.072Z,15.70
2023-04-18T15:15:56.375Z,15.70
2023-04-18T15:18:23.247Z,15.80
2023-04-18T15:20:51.455Z,15.70
2023-04-18T15:23:18.165Z,15.70
2023-04-18T15:25:45.655Z,15.70
2023-04-18T15:28:16.041Z,15.60
2023-04-18T15:30:42.653Z,15.70
2023-04-18T15:33:11.096Z,15.60
2023-04-18T15:35:37.759Z,15.50
2023-04-18T15:38:04.791Z,15.50
2023-04-18T15:40:32.924Z,15.50
2023-04-18T15:42:59.768Z,15.30
2023-04-18T15:45:26.445Z,15.20
2023-04-18T15:47:53.321Z,15.20
2023-04-18T15:50:20.153Z,15.20
2023-04-18T15:52:46.786Z,15.20
2023-04-18T15:55:13.652Z,15.20
2023-04-18T15:57:41.554Z,15.20
2023-04-18T16:00:16.063Z,15.00
2023-04-18T16:02:46.347Z,15.00
2023-04-18T16:05:13.711Z,15.00
2023-04-18T16:07:41.416Z,14.90
2023-04-18T16:10:10.683Z,14.90
2023-04-18T16:12:39.171Z,14.80
2023-04-18T16:15:07.236Z,14.80
2023-04-18T16:17:34.192Z,14.70
2023-04-18T16:20:01.364Z,14.70
2023-04-18T16:22:28.131Z,14.60
2023-04-18T16:24:54.769Z,14.50
2023-04-18T16:27:21.736Z,14.50
2023-04-18T16:29:48.571Z,14.40
2023-04-18T16:32:15.374Z,14.30
2023-04-18T16:34:42.033Z,14.40
2023-04-18T16:37:08.658Z,14.40
2023-04-18T16:39:35.264Z,14.30
2023-04-18T16:42:03.428Z,14.20
2023-04-18T16:44:30.772Z,14.20
2023-04-18T16:46:57.500Z,14.10
2023-04-18T16:49:24.718Z,14.10
2023-04-18T16:51:51.319Z,14.10
2023-04-18T16:54:17.992Z,14.10
2023-04-18T16:56:44.814Z,14.00
2023-04-18T16:59:11.626Z,14.10
2023-04-18T17:01:38.345Z,14.00
2023-04-18T17:04:05.399Z,13.90
2023-04-18T17:06:32.599Z,13.80
2023-04-18T17:08:59.365Z,13.80
2023-04-18T17:11:26.477Z,13.90
2023-04-18T17:13:53.297Z,13.70
2023-04-18T17:16:20.133Z,13.70
2023-04-18T17:18:46.904Z,13.70
2023-04-18T17:21:13.632Z,13.70
2023-04-18T17:23:42.306Z,13.70
2023-04-18T17:26:09.472Z,13.60
2023-04-18T17:28:36.404Z,13.60
2023-04-18T17:31:03.974Z,13.60
2023-04-18T17:33:31.338Z,13.50
2023-04-18T17:35:58.348Z,13.50
2023-04-18T17:38:25.260Z,13.60
2023-04-18T17:40:59.508Z,13.50
2023-04-18T17:43:26.799Z,13.40
2023-04-18T17:45:53.827Z,13.40
2023-04-18T17:48:20.507Z,13.40
2023-04-18T17:50:47.191Z,13.30
2023-04-18T17:53:13.817Z,13.20
2023-04-18T17:55:40.984Z,13.20
2023-04-18T17:58:07.641Z,13.10
2023-04-18T18:00:34.314Z,13.10
2023-04-18T18:03:01.796Z,13.10
2023-04-18T18:05:30.066Z,13.00
2023-04-18T18:07:57.631Z,13.00
2023-04-18T18:10:24.892Z,13.00
2023-04-18T18:12:51.736Z,12.90
2023-04-18T18:15:19.027Z,12.80
2023-04-18T18:17:48.531Z,12.80
2023-04-18T18:20:15.558Z,12.70
2023-04-18T18:22:42.926Z,12.60
2023-04-18T18:25:10.114Z,12.50
2023-04-18T18:27:36.976Z,12.50
2023-04-18T18:30:04.621Z,12.40
2023-04-18T18:32:31.309Z,12.40
2023-04-18T18:34:58.066Z,12.40
2023-04-18T18:37:26.012Z,12.30
2023-04-18T18:39:54.835Z,12.20
2023-04-18T18:42:21.837Z,12.20
2023-04-18T18:44:48.531Z,12.20
2023-04-18T18:47:16.317Z,12.10
2023-04-18T18:49:43.127Z,12.00
2023-04-18T18:52:09.791Z,12.00
2023-04-18T18:54:36.413Z,11.90
2023-04-18T18:57:03.128Z,11.90
2023-04-18T18:59:30.039Z,11.80
2023-04-18T19:01:56.857Z,11.70
2023-04-18T19:04:24.479Z,11.80
2023-04-18T19:06:51.258Z,11.70
2023-04-18T19:09:17.888Z,11.70
2023-04-18T19:11:44.519Z,11.60
2023-04-18T19:14:11.254Z,11.60
2023-04-18T19:16:37.996Z,11.70
2023-04-18T19:19:04.723Z,11.60
2023-04-18T19:21:31.458Z,11.50
2023-04-18T19:23:58.160Z,11.40
2023-04-18T19:26:24.867Z,11.40
2023-04-18T19:28:51.568Z,11.30
2023-04-18T19:31:18.335Z,11.30
2023-04-18T19:33:45.006Z,11.30
2023-04-18T19:36:11.729Z,11.30
2023-04-18T19:38:38.388Z,11.30
2023-04-18T19:41:05.111Z,11.40
2023-04-18T19:43:31.829Z,11.30
2023-04-18T19:45:59.234Z,11.30
2023-04-18T19:48:25.988Z,11.20
2023-04-18T19:50:52.612Z,11.20
2023-04-18T19:53:20.409Z,11.10
2023-04-18T19:55:47.076Z,11.20
2023-04-18T19:58:46.076Z,11.20
2023-04-18T20:01:13.864Z,11.10
2023-04-18T20:03:41.391Z,11.00
2023-04-18T20:06:09.325Z,11.10
2023-04-18T20:08:41.373Z,11.00
2023-04-18T20:11:09.922Z,11.00
2023-04-18T20:13:37.364Z,10.90
2023-04-18T20:16:05.160Z,11.00
2023-04-18T20:18:32.377Z,10.90
2023-04-18T20:20:59.225Z,10.90
2023-04-18T20:23:25.912Z,10.80
2023-04-18T20:25:52.741Z,10.80
2023-04-18T20:28:19.427Z,10.80
2023-04-18T20:30:46.185Z,10.80
2023-04-18T20:33:13.058Z,10.80
2023-04-18T20:35:40.605Z,10.70
2023-04-18T20:38:11.056Z,10.80
2023-04-18T20:40:39.029Z,10.80
2023-04-18T20:43:07.876Z,10.80
2023-04-18T20:45:37.397Z,10.80
2023-04-18T20:48:04.750Z,10.70
2023-04-18T20:50:31.520Z,10.60
2023-04-18T20:53:00.378Z,10.70
2023-04-18T20:55:27.138Z,10.60
2023-04-18T20:57:53.955Z,10.60
2023-04-18T21:00:20.662Z,10.50
2023-04-18T21:02:47.454Z,10.50
2023-04-18T21:05:14.283Z,10.50
2023-04-18T21:07:40.890Z,10.50
2023-04-18T21:10:08.008Z,10.40
2023-04-18T21:12:34.712Z,10.50
2023-04-18T21:15:01.461Z,10.40
2023-04-18T21:17:28.183Z,10.40
2023-04-18T21:19:55.750Z,10.30
2023-04-18T21:22:22.388Z,10.40
2023-04-18T21:24:49.043Z,10.40
2023-04-18T21:27:16.245Z,10.40
2023-04-18T21:29:42.979Z,10.40
2023-04-18T21:32:09.742Z,10.40
2023-04-18T21:34:36.598Z,10.40
2023-04-18T21:37:03.505Z,10.30
2023-04-18T21:39:30.861Z,10.40
2023-04-18T21:41:57.580Z,10.40
2023-04-18T21:44:24.369Z,10.40
2023-04-18T21:46:51.347Z,10.40
2023-04-18T21:49:17.960Z,10.30
2023-04-18T21:51:45.273Z,10.40
2023-04-18T21:54:12.020Z,10.30
2023-04-18T21:56:38.854Z,10.30
2023-04-18T21:59:05.521Z,10.30
2023-04-18T22:01:34.395Z,10.30
2023-04-18T22:04:01.949Z,10.30
2023-04-18T22:06:29.513Z,10.30
2023-04-18T22:08:56.094Z,10.20
2023-04-18T22:11:23.616Z,10.20
2023-04-18T22:13:53.978Z,10.20
2023-04-18T22:16:24.549Z,10.20
2023-04-18T22:18:51.305Z,10.20
2023-04-18T22:21:17.908Z,10.20
2023-04-18T22:23:44.539Z,10.10
2023-04-18T22:26:11.285Z,10.10
2023-04-18T22:28:37.908Z,10.00
2023-04-18T22:31:04.884Z,10.10
2023-04-18T22:33:31.555Z,10.10
2023-04-18T22:35:58.299Z,10.00
2023-04-18T22:38:25.742Z,10.00
2023-04-18T22:40:52.637Z,10.00
2023-04-18T22:43:22.853Z,10.00
2023-04-18T22:45:50.215Z,10.00
2023-04-18T22:48:17.299Z,10.00
2023-04-18T22:50:44.102Z,9.90
2023-04-18T22:53:11.549Z,9.80
2023-04-18T22:55:40.012Z,9.80
2023-04-18T22:58:07.136Z,9.80
2023-04-18T23:00:33.950Z,9.80
2023-04-18T23:03:00.993Z,9.80
2023-04-18T23:05:28.460Z,9.70
2023-04-18T23:07:55.356Z,9.70
2023-04-18T23:10:22.803Z,9.70
2023-04-18T23:12:49.523Z,9.70
2023-04-18T23:15:16.358Z,9.70
2023-04-18T23:17:43.038Z,9.60
2023-04-18T23:20:10.857Z,9.70
2023-04-18T23:22:38.613Z,9.70
2023-04-18T23:25:06.112Z,9.60
2023-04-18T23:27:32.808Z,9.70
2023-04-18T23:29:59.478Z,9.70
2023-04-18T23:32:26.213Z,9.70
2023-04-18T23:34:52.839Z,9.60
2023-04-18T23:37:19.473Z,9.60
2023-04-18T23:39:46.101Z,9.60
2023-04-18T23:42:12.717Z,9.60
2023-04-18T23:44:39.316Z,9.60
2023-04-18T23:47:06.152Z,9.50
2023-04-18T23:49:32.871Z,9.50
2023-04-18T23:51:59.521Z,9.50
2023-04-18T23:54:26.196Z,9.50
2023-04-18T23:56:52.810Z,9.50
2023-04-18T23:59:19.473Z,9.50
